Terminal Aerodrome Forecast
Issued by NWS Goodland, KS

Home | Current Version | Previous Version | Text Only | Print | Product List | Glossary On
Versions: 1 2 3 4 5 6 7 8 9 10 11 12 13 14 15 16 17 18 19 20 21 22
000
FTUS43 KGLD 230246 AAA
TAFGLD
TAF AMD
KGLD 230246Z 2303/2324 15005KT P6SM SCT120 WS002/15040KT
     FM230600 16010KT P6SM BKN300 WS002/15035KT
     FM230900 16011KT P6SM OVC015 WS002/15035KT
     FM231000 16010KT 6SM BR OVC008 WS002/15030KT
     FM231400 15014G20KT P6SM OVC010
     FM232000 16018G26KT P6SM SCT015=

USA.gov is the U.S. government's official web portal to all federal, state and local government web resources and services.